sensor_id;sensor_type;location;lat;lon;timestamp;P1;durP1;ratioP1;P2;durP2;ratioP2
76123;SDS011;65173;48.066;20.976;2023-04-06T00:00:14;12.55;;;5.70;;
76123;SDS011;65173;48.066;20.976;2023-04-06T00:03:18;13.57;;;6.28;;
76123;SDS011;65173;48.066;20.976;2023-04-06T00:06:21;12.50;;;5.93;;
76123;SDS011;65173;48.066;20.976;2023-04-06T00:09:24;11.13;;;5.05;;
76123;SDS011;65173;48.066;20.976;2023-04-06T00:12:27;10.50;;;5.22;;
76123;SDS011;65173;48.066;20.976;2023-04-06T00:15:30;10.30;;;5.35;;
76123;SDS011;65173;48.066;20.976;2023-04-06T00:18:33;10.95;;;5.95;;
76123;SDS011;65173;48.066;20.976;2023-04-06T00:21:36;11.25;;;6.00;;
76123;SDS011;65173;48.066;20.976;2023-04-06T00:24:39;14.73;;;6.38;;
76123;SDS011;65173;48.066;20.976;2023-04-06T00:27:42;11.53;;;4.97;;
76123;SDS011;65173;48.066;20.976;2023-04-06T00:30:45;10.18;;;5.38;;
76123;SDS011;65173;48.066;20.976;2023-04-06T00:33:48;10.75;;;4.70;;
76123;SDS011;65173;48.066;20.976;2023-04-06T00:36:51;12.47;;;5.47;;
76123;SDS011;65173;48.066;20.976;2023-04-06T00:39:54;11.13;;;5.10;;
76123;SDS011;65173;48.066;20.976;2023-04-06T00:42:57;8.23;;;4.85;;
76123;SDS011;65173;48.066;20.976;2023-04-06T00:45:59;15.23;;;5.80;;
76123;SDS011;65173;48.066;20.976;2023-04-06T00:49:02;11.68;;;5.15;;
76123;SDS011;65173;48.066;20.976;2023-04-06T00:52:05;10.25;;;4.40;;
76123;SDS011;65173;48.066;20.976;2023-04-06T00:55:09;8.65;;;4.50;;
76123;SDS011;65173;48.066;20.976;2023-04-06T00:58:16;5.77;;;4.30;;
76123;SDS011;65173;48.066;20.976;2023-04-06T01:01:25;8.98;;;4.97;;
76123;SDS011;65173;48.066;20.976;2023-04-06T01:04:32;9.57;;;4.38;;
76123;SDS011;65173;48.066;20.976;2023-04-06T01:07:38;9.60;;;4.43;;
76123;SDS011;65173;48.066;20.976;2023-04-06T01:10:48;6.95;;;3.63;;
76123;SDS011;65173;48.066;20.976;2023-04-06T01:14:00;5.75;;;3.95;;
76123;SDS011;65173;48.066;20.976;2023-04-06T01:17:23;7.90;;;4.30;;
76123;SDS011;65173;48.066;20.976;2023-04-06T01:20:27;9.07;;;4.70;;
76123;SDS011;65173;48.066;20.976;2023-04-06T01:23:30;10.57;;;5.03;;
76123;SDS011;65173;48.066;20.976;2023-04-06T01:26:33;10.13;;;4.40;;
76123;SDS011;65173;48.066;20.976;2023-04-06T01:29:41;12.27;;;4.57;;
76123;SDS011;65173;48.066;20.976;2023-04-06T01:32:46;8.68;;;4.53;;
76123;SDS011;65173;48.066;20.976;2023-04-06T01:35:53;10.70;;;4.78;;
76123;SDS011;65173;48.066;20.976;2023-04-06T01:38:57;15.07;;;6.70;;
76123;SDS011;65173;48.066;20.976;2023-04-06T01:42:07;8.80;;;4.43;;
76123;SDS011;65173;48.066;20.976;2023-04-06T01:45:13;8.90;;;5.10;;
76123;SDS011;65173;48.066;20.976;2023-04-06T01:48:17;8.55;;;4.90;;
76123;SDS011;65173;48.066;20.976;2023-04-06T01:51:20;8.73;;;4.72;;
76123;SDS011;65173;48.066;20.976;2023-04-06T01:54:28;8.48;;;5.13;;
76123;SDS011;65173;48.066;20.976;2023-04-06T01:57:40;7.13;;;4.32;;
76123;SDS011;65173;48.066;20.976;2023-04-06T02:00:51;9.10;;;4.90;;
76123;SDS011;65173;48.066;20.976;2023-04-06T02:03:54;15.68;;;6.72;;
76123;SDS011;65173;48.066;20.976;2023-04-06T02:06:58;12.00;;;6.00;;
76123;SDS011;65173;48.066;20.976;2023-04-06T02:10:03;11.03;;;5.70;;
76123;SDS011;65173;48.066;20.976;2023-04-06T02:13:11;10.75;;;5.60;;
76123;SDS011;65173;48.066;20.976;2023-04-06T02:16:19;8.18;;;5.85;;
76123;SDS011;65173;48.066;20.976;2023-04-06T02:19:22;11.57;;;5.90;;
76123;SDS011;65173;48.066;20.976;2023-04-06T02:22:25;12.00;;;6.68;;
76123;SDS011;65173;48.066;20.976;2023-04-06T02:25:28;10.90;;;6.55;;
76123;SDS011;65173;48.066;20.976;2023-04-06T02:28:31;11.40;;;5.82;;
76123;SDS011;65173;48.066;20.976;2023-04-06T02:31:36;12.53;;;5.43;;
76123;SDS011;65173;48.066;20.976;2023-04-06T02:34:40;12.32;;;5.55;;
76123;SDS011;65173;48.066;20.976;2023-04-06T02:37:43;13.88;;;6.35;;
76123;SDS011;65173;48.066;20.976;2023-04-06T02:40:47;11.87;;;6.40;;
76123;SDS011;65173;48.066;20.976;2023-04-06T02:43:56;10.82;;;5.55;;
76123;SDS011;65173;48.066;20.976;2023-04-06T02:47:09;9.00;;;5.78;;
76123;SDS011;65173;48.066;20.976;2023-04-06T02:50:14;11.15;;;6.07;;
76123;SDS011;65173;48.066;20.976;2023-04-06T02:53:27;12.27;;;5.78;;
76123;SDS011;65173;48.066;20.976;2023-04-06T02:56:30;11.95;;;5.80;;
76123;SDS011;65173;48.066;20.976;2023-04-06T02:59:33;11.98;;;5.70;;
76123;SDS011;65173;48.066;20.976;2023-04-06T03:02:43;10.73;;;5.87;;
76123;SDS011;65173;48.066;20.976;2023-04-06T03:05:49;11.07;;;5.50;;
76123;SDS011;65173;48.066;20.976;2023-04-06T03:09:00;15.25;;;6.47;;
76123;SDS011;65173;48.066;20.976;2023-04-06T03:12:03;12.87;;;5.97;;
76123;SDS011;65173;48.066;20.976;2023-04-06T03:15:18;10.93;;;5.18;;
76123;SDS011;65173;48.066;20.976;2023-04-06T03:18:29;9.15;;;5.65;;
76123;SDS011;65173;48.066;20.976;2023-04-06T03:21:32;14.07;;;5.78;;
76123;SDS011;65173;48.066;20.976;2023-04-06T03:24:36;8.70;;;5.50;;
76123;SDS011;65173;48.066;20.976;2023-04-06T03:27:40;12.00;;;5.85;;
76123;SDS011;65173;48.066;20.976;2023-04-06T03:30:47;10.18;;;5.07;;
76123;SDS011;65173;48.066;20.976;2023-04-06T03:33:53;12.43;;;6.17;;
76123;SDS011;65173;48.066;20.976;2023-04-06T03:37:01;12.93;;;5.97;;
76123;SDS011;65173;48.066;20.976;2023-04-06T03:40:17;13.98;;;6.70;;
76123;SDS011;65173;48.066;20.976;2023-04-06T03:43:21;16.97;;;7.33;;
76123;SDS011;65173;48.066;20.976;2023-04-06T03:46:24;16.13;;;6.85;;
76123;SDS011;65173;48.066;20.976;2023-04-06T03:49:31;12.70;;;6.80;;
76123;SDS011;65173;48.066;20.976;2023-04-06T03:52:35;14.88;;;7.07;;
76123;SDS011;65173;48.066;20.976;2023-04-06T03:55:38;10.82;;;6.43;;
76123;SDS011;65173;48.066;20.976;2023-04-06T03:58:42;16.55;;;7.07;;
76123;SDS011;65173;48.066;20.976;2023-04-06T04:01:47;12.02;;;6.13;;
76123;SDS011;65173;48.066;20.976;2023-04-06T04:04:50;13.20;;;6.93;;
76123;SDS011;65173;48.066;20.976;2023-04-06T04:07:54;10.80;;;5.95;;
76123;SDS011;65173;48.066;20.976;2023-04-06T04:11:01;11.18;;;6.25;;
76123;SDS011;65173;48.066;20.976;2023-04-06T04:14:03;11.73;;;6.23;;
76123;SDS011;65173;48.066;20.976;2023-04-06T04:17:07;14.25;;;7.05;;
76123;SDS011;65173;48.066;20.976;2023-04-06T04:20:10;11.68;;;5.72;;
76123;SDS011;65173;48.066;20.976;2023-04-06T04:23:13;11.55;;;6.43;;
76123;SDS011;65173;48.066;20.976;2023-04-06T04:26:16;11.93;;;6.40;;
76123;SDS011;65173;48.066;20.976;2023-04-06T04:29:20;14.85;;;6.05;;
76123;SDS011;65173;48.066;20.976;2023-04-06T04:32:31;12.15;;;6.35;;
76123;SDS011;65173;48.066;20.976;2023-04-06T04:35:37;12.50;;;7.07;;
76123;SDS011;65173;48.066;20.976;2023-04-06T04:38:41;13.02;;;7.13;;
76123;SDS011;65173;48.066;20.976;2023-04-06T04:41:43;14.80;;;7.70;;
76123;SDS011;65173;48.066;20.976;2023-04-06T04:44:47;11.57;;;6.70;;
76123;SDS011;65173;48.066;20.976;2023-04-06T04:47:56;15.38;;;6.75;;
76123;SDS011;65173;48.066;20.976;2023-04-06T04:51:04;12.20;;;7.63;;
76123;SDS011;65173;48.066;20.976;2023-04-06T04:54:23;14.45;;;6.78;;
76123;SDS011;65173;48.066;20.976;2023-04-06T04:57:26;11.13;;;6.60;;
76123;SDS011;65173;48.066;20.976;2023-04-06T05:00:29;15.55;;;7.60;;
76123;SDS011;65173;48.066;20.976;2023-04-06T05:03:35;14.75;;;6.38;;
76123;SDS011;65173;48.066;20.976;2023-04-06T05:06:45;10.03;;;6.13;;
76123;SDS011;65173;48.066;20.976;2023-04-06T05:09:49;10.13;;;6.20;;
76123;SDS011;65173;48.066;20.976;2023-04-06T05:12:53;14.52;;;6.80;;
76123;SDS011;65173;48.066;20.976;2023-04-06T05:15:56;12.57;;;6.40;;
76123;SDS011;65173;48.066;20.976;2023-04-06T05:19:03;14.55;;;8.15;;
76123;SDS011;65173;48.066;20.976;2023-04-06T05:22:14;16.60;;;7.25;;
76123;SDS011;65173;48.066;20.976;2023-04-06T05:25:21;14.20;;;7.07;;
76123;SDS011;65173;48.066;20.976;2023-04-06T05:28:27;11.85;;;6.47;;
76123;SDS011;65173;48.066;20.976;2023-04-06T05:31:30;13.70;;;6.25;;
76123;SDS011;65173;48.066;20.976;2023-04-06T05:34:33;16.33;;;8.43;;
76123;SDS011;65173;48.066;20.976;2023-04-06T05:37:39;11.83;;;7.80;;
76123;SDS011;65173;48.066;20.976;2023-04-06T05:40:44;14.00;;;7.57;;
76123;SDS011;65173;48.066;20.976;2023-04-06T05:43:51;13.63;;;7.30;;
76123;SDS011;65173;48.066;20.976;2023-04-06T05:46:54;15.23;;;7.00;;
76123;SDS011;65173;48.066;20.976;2023-04-06T05:49:57;13.63;;;6.18;;
76123;SDS011;65173;48.066;20.976;2023-04-06T05:53:10;12.95;;;6.05;;
76123;SDS011;65173;48.066;20.976;2023-04-06T05:56:17;10.18;;;6.38;;
76123;SDS011;65173;48.066;20.976;2023-04-06T05:59:20;15.73;;;7.70;;
76123;SDS011;65173;48.066;20.976;2023-04-06T06:02:23;15.35;;;6.45;;
76123;SDS011;65173;48.066;20.976;2023-04-06T06:05:28;14.93;;;8.10;;
76123;SDS011;65173;48.066;20.976;2023-04-06T06:08:35;17.20;;;7.77;;
76123;SDS011;65173;48.066;20.976;2023-04-06T06:11:45;5.47;;;2.75;;
76123;SDS011;65173;48.066;20.976;2023-04-06T06:14:51;8.00;;;3.88;;
76123;SDS011;65173;48.066;20.976;2023-04-06T06:17:55;7.27;;;3.60;;
76123;SDS011;65173;48.066;20.976;2023-04-06T06:20:59;4.22;;;2.08;;
76123;SDS011;65173;48.066;20.976;2023-04-06T06:24:03;4.18;;;2.28;;
76123;SDS011;65173;48.066;20.976;2023-04-06T06:27:05;5.25;;;2.53;;
76123;SDS011;65173;48.066;20.976;2023-04-06T06:30:12;7.63;;;3.67;;
76123;SDS011;65173;48.066;20.976;2023-04-06T06:33:16;8.40;;;4.07;;
76123;SDS011;65173;48.066;20.976;2023-04-06T06:36:20;8.68;;;3.45;;
76123;SDS011;65173;48.066;20.976;2023-04-06T06:39:24;7.30;;;4.37;;
76123;SDS011;65173;48.066;20.976;2023-04-06T06:42:28;4.57;;;2.35;;
76123;SDS011;65173;48.066;20.976;2023-04-06T06:45:43;8.30;;;3.92;;
76123;SDS011;65173;48.066;20.976;2023-04-06T06:48:49;3.43;;;2.40;;
76123;SDS011;65173;48.066;20.976;2023-04-06T06:51:51;9.82;;;4.63;;
76123;SDS011;65173;48.066;20.976;2023-04-06T06:54:57;7.15;;;4.70;;
76123;SDS011;65173;48.066;20.976;2023-04-06T06:58:00;14.13;;;5.85;;
76123;SDS011;65173;48.066;20.976;2023-04-06T07:01:03;8.23;;;4.15;;
76123;SDS011;65173;48.066;20.976;2023-04-06T07:04:08;8.40;;;4.20;;
76123;SDS011;65173;48.066;20.976;2023-04-06T07:07:12;7.65;;;4.10;;
76123;SDS011;65173;48.066;20.976;2023-04-06T07:10:14;8.53;;;5.10;;
76123;SDS011;65173;48.066;20.976;2023-04-06T07:13:19;9.93;;;4.22;;
76123;SDS011;65173;48.066;20.976;2023-04-06T07:16:27;10.90;;;5.28;;
76123;SDS011;65173;48.066;20.976;2023-04-06T07:19:30;12.70;;;5.80;;
76123;SDS011;65173;48.066;20.976;2023-04-06T07:22:34;11.35;;;6.15;;
76123;SDS011;65173;48.066;20.976;2023-04-06T07:25:37;9.35;;;5.70;;
76123;SDS011;65173;48.066;20.976;2023-04-06T07:28:40;18.23;;;7.85;;
76123;SDS011;65173;48.066;20.976;2023-04-06T07:31:44;26.58;;;10.27;;
76123;SDS011;65173;48.066;20.976;2023-04-06T07:34:47;21.63;;;11.02;;
76123;SDS011;65173;48.066;20.976;2023-04-06T07:37:50;18.95;;;9.23;;
76123;SDS011;65173;48.066;20.976;2023-04-06T07:40:53;48.13;;;15.37;;
76123;SDS011;65173;48.066;20.976;2023-04-06T07:43:56;22.60;;;9.13;;
76123;SDS011;65173;48.066;20.976;2023-04-06T07:46:59;14.40;;;7.97;;
76123;SDS011;65173;48.066;20.976;2023-04-06T07:50:03;14.87;;;7.77;;
76123;SDS011;65173;48.066;20.976;2023-04-06T07:53:08;16.48;;;7.82;;
76123;SDS011;65173;48.066;20.976;2023-04-06T07:56:12;15.20;;;7.82;;
76123;SDS011;65173;48.066;20.976;2023-04-06T07:59:17;16.17;;;9.05;;
76123;SDS011;65173;48.066;20.976;2023-04-06T08:02:20;16.52;;;9.07;;
76123;SDS011;65173;48.066;20.976;2023-04-06T08:05:23;12.00;;;6.63;;
76123;SDS011;65173;48.066;20.976;2023-04-06T08:08:26;11.80;;;7.57;;
76123;SDS011;65173;48.066;20.976;2023-04-06T08:11:28;11.50;;;6.57;;
76123;SDS011;65173;48.066;20.976;2023-04-06T08:14:32;14.63;;;8.02;;
76123;SDS011;65173;48.066;20.976;2023-04-06T08:17:34;12.27;;;7.43;;
76123;SDS011;65173;48.066;20.976;2023-04-06T08:20:38;17.43;;;9.07;;
76123;SDS011;65173;48.066;20.976;2023-04-06T08:23:41;16.58;;;7.43;;
76123;SDS011;65173;48.066;20.976;2023-04-06T08:26:44;16.33;;;8.60;;
76123;SDS011;65173;48.066;20.976;2023-04-06T08:29:49;19.90;;;9.38;;
76123;SDS011;65173;48.066;20.976;2023-04-06T08:32:53;12.65;;;7.18;;
76123;SDS011;65173;48.066;20.976;2023-04-06T08:35:55;15.98;;;8.35;;
76123;SDS011;65173;48.066;20.976;2023-04-06T08:38:58;15.40;;;8.55;;
76123;SDS011;65173;48.066;20.976;2023-04-06T08:42:02;17.17;;;8.07;;
76123;SDS011;65173;48.066;20.976;2023-04-06T08:45:05;9.55;;;6.22;;
76123;SDS011;65173;48.066;20.976;2023-04-06T08:48:08;11.43;;;6.88;;
76123;SDS011;65173;48.066;20.976;2023-04-06T08:51:12;12.43;;;6.63;;
76123;SDS011;65173;48.066;20.976;2023-04-06T08:54:15;15.82;;;8.15;;
76123;SDS011;65173;48.066;20.976;2023-04-06T08:57:18;15.13;;;8.98;;
76123;SDS011;65173;48.066;20.976;2023-04-06T09:00:22;19.67;;;9.68;;
76123;SDS011;65173;48.066;20.976;2023-04-06T09:03:26;16.73;;;8.98;;
76123;SDS011;65173;48.066;20.976;2023-04-06T09:06:30;18.10;;;8.70;;
76123;SDS011;65173;48.066;20.976;2023-04-06T09:09:33;15.73;;;8.05;;
76123;SDS011;65173;48.066;20.976;2023-04-06T09:12:36;14.07;;;7.63;;
76123;SDS011;65173;48.066;20.976;2023-04-06T09:15:39;13.00;;;7.68;;
76123;SDS011;65173;48.066;20.976;2023-04-06T09:18:42;14.48;;;7.75;;
76123;SDS011;65173;48.066;20.976;2023-04-06T09:21:45;13.53;;;7.77;;
76123;SDS011;65173;48.066;20.976;2023-04-06T09:24:50;14.45;;;7.35;;
76123;SDS011;65173;48.066;20.976;2023-04-06T09:28:01;15.40;;;8.23;;
76123;SDS011;65173;48.066;20.976;2023-04-06T09:31:05;12.23;;;6.95;;
76123;SDS011;65173;48.066;20.976;2023-04-06T09:34:08;14.93;;;7.32;;
76123;SDS011;65173;48.066;20.976;2023-04-06T09:37:12;13.18;;;8.23;;
76123;SDS011;65173;48.066;20.976;2023-04-06T09:40:18;13.93;;;8.05;;
76123;SDS011;65173;48.066;20.976;2023-04-06T09:43:27;10.70;;;5.77;;
76123;SDS011;65173;48.066;20.976;2023-04-06T09:46:40;14.85;;;6.65;;
76123;SDS011;65173;48.066;20.976;2023-04-06T09:50:00;11.38;;;7.57;;
76123;SDS011;65173;48.066;20.976;2023-04-06T09:53:04;14.53;;;8.03;;
76123;SDS011;65173;48.066;20.976;2023-04-06T09:56:09;11.20;;;7.10;;
76123;SDS011;65173;48.066;20.976;2023-04-06T09:59:21;14.07;;;7.68;;
76123;SDS011;65173;48.066;20.976;2023-04-06T10:06:14;14.80;;;7.88;;
76123;SDS011;65173;48.066;20.976;2023-04-06T10:09:25;12.23;;;6.88;;
76123;SDS011;65173;48.066;20.976;2023-04-06T10:12:31;12.63;;;8.18;;
76123;SDS011;65173;48.066;20.976;2023-04-06T10:15:34;11.20;;;7.43;;
76123;SDS011;65173;48.066;20.976;2023-04-06T10:18:37;14.90;;;8.82;;
76123;SDS011;65173;48.066;20.976;2023-04-06T10:21:45;9.85;;;6.90;;
76123;SDS011;65173;48.066;20.976;2023-04-06T10:24:53;14.40;;;8.57;;
76123;SDS011;65173;48.066;20.976;2023-04-06T10:28:04;14.88;;;8.38;;
76123;SDS011;65173;48.066;20.976;2023-04-06T10:31:08;17.33;;;9.05;;
76123;SDS011;65173;48.066;20.976;2023-04-06T10:34:11;22.38;;;13.32;;
76123;SDS011;65173;48.066;20.976;2023-04-06T10:37:15;14.90;;;8.90;;
76123;SDS011;65173;48.066;20.976;2023-04-06T10:40:25;15.63;;;9.02;;
76123;SDS011;65173;48.066;20.976;2023-04-06T10:43:32;17.45;;;10.13;;
76123;SDS011;65173;48.066;20.976;2023-04-06T10:46:36;16.20;;;9.60;;
76123;SDS011;65173;48.066;20.976;2023-04-06T10:49:39;19.48;;;10.50;;
76123;SDS011;65173;48.066;20.976;2023-04-06T10:52:43;17.90;;;10.93;;
76123;SDS011;65173;48.066;20.976;2023-04-06T10:55:47;19.33;;;10.53;;
76123;SDS011;65173;48.066;20.976;2023-04-06T10:58:53;30.95;;;16.52;;
76123;SDS011;65173;48.066;20.976;2023-04-06T11:01:58;32.67;;;18.27;;
76123;SDS011;65173;48.066;20.976;2023-04-06T11:05:01;47.70;;;26.08;;
76123;SDS011;65173;48.066;20.976;2023-04-06T11:08:03;22.92;;;13.07;;
76123;SDS011;65173;48.066;20.976;2023-04-06T11:11:10;18.10;;;9.80;;
76123;SDS011;65173;48.066;20.976;2023-04-06T11:14:18;15.68;;;9.27;;
76123;SDS011;65173;48.066;20.976;2023-04-06T11:17:27;17.10;;;10.93;;
76123;SDS011;65173;48.066;20.976;2023-04-06T11:20:30;21.02;;;11.75;;
76123;SDS011;65173;48.066;20.976;2023-04-06T11:23:33;18.88;;;10.13;;
76123;SDS011;65173;48.066;20.976;2023-04-06T11:26:36;16.37;;;9.40;;
76123;SDS011;65173;48.066;20.976;2023-04-06T11:29:40;19.55;;;10.30;;
76123;SDS011;65173;48.066;20.976;2023-04-06T11:32:44;18.67;;;11.38;;
76123;SDS011;65173;48.066;20.976;2023-04-06T11:35:48;20.45;;;11.23;;
76123;SDS011;65173;48.066;20.976;2023-04-06T11:38:51;18.77;;;10.65;;
76123;SDS011;65173;48.066;20.976;2023-04-06T11:41:54;19.45;;;11.73;;
76123;SDS011;65173;48.066;20.976;2023-04-06T11:45:00;19.77;;;11.27;;
76123;SDS011;65173;48.066;20.976;2023-04-06T11:48:03;18.43;;;11.03;;
76123;SDS011;65173;48.066;20.976;2023-04-06T11:51:06;20.30;;;10.50;;
76123;SDS011;65173;48.066;20.976;2023-04-06T11:54:09;17.67;;;10.32;;
76123;SDS011;65173;48.066;20.976;2023-04-06T11:57:12;19.77;;;10.40;;
76123;SDS011;65173;48.066;20.976;2023-04-06T12:00:16;17.13;;;11.20;;
76123;SDS011;65173;48.066;20.976;2023-04-06T12:03:18;18.65;;;11.23;;
76123;SDS011;65173;48.066;20.976;2023-04-06T12:06:22;18.60;;;9.55;;
76123;SDS011;65173;48.066;20.976;2023-04-06T12:09:25;21.77;;;11.50;;
76123;SDS011;65173;48.066;20.976;2023-04-06T12:12:28;20.15;;;11.85;;
76123;SDS011;65173;48.066;20.976;2023-04-06T12:15:31;21.15;;;12.02;;
76123;SDS011;65173;48.066;20.976;2023-04-06T12:18:33;31.47;;;14.43;;
76123;SDS011;65173;48.066;20.976;2023-04-06T12:21:36;35.70;;;16.65;;
76123;SDS011;65173;48.066;20.976;2023-04-06T12:24:39;31.88;;;16.55;;
76123;SDS011;65173;48.066;20.976;2023-04-06T12:27:42;33.13;;;15.53;;
76123;SDS011;65173;48.066;20.976;2023-04-06T12:30:45;32.03;;;16.77;;
76123;SDS011;65173;48.066;20.976;2023-04-06T12:33:48;23.58;;;13.55;;
76123;SDS011;65173;48.066;20.976;2023-04-06T12:36:52;32.58;;;15.73;;
76123;SDS011;65173;48.066;20.976;2023-04-06T12:39:55;25.52;;;14.57;;
76123;SDS011;65173;48.066;20.976;2023-04-06T12:42:58;31.13;;;15.45;;
76123;SDS011;65173;48.066;20.976;2023-04-06T12:46:02;32.72;;;17.23;;
76123;SDS011;65173;48.066;20.976;2023-04-06T12:49:05;26.50;;;14.63;;
76123;SDS011;65173;48.066;20.976;2023-04-06T12:52:08;27.75;;;15.13;;
76123;SDS011;65173;48.066;20.976;2023-04-06T12:55:11;25.35;;;14.00;;
76123;SDS011;65173;48.066;20.976;2023-04-06T12:58:14;23.47;;;13.03;;
76123;SDS011;65173;48.066;20.976;2023-04-06T13:01:17;24.80;;;14.85;;
76123;SDS011;65173;48.066;20.976;2023-04-06T13:04:20;28.52;;;15.20;;
76123;SDS011;65173;48.066;20.976;2023-04-06T13:07:23;41.45;;;17.15;;
76123;SDS011;65173;48.066;20.976;2023-04-06T13:10:26;61.03;;;22.27;;
76123;SDS011;65173;48.066;20.976;2023-04-06T13:13:30;53.88;;;20.65;;
76123;SDS011;65173;48.066;20.976;2023-04-06T13:16:33;34.80;;;16.00;;
76123;SDS011;65173;48.066;20.976;2023-04-06T13:19:36;33.67;;;16.10;;
76123;SDS011;65173;48.066;20.976;2023-04-06T13:22:38;27.80;;;13.85;;
76123;SDS011;65173;48.066;20.976;2023-04-06T13:25:41;22.02;;;12.82;;
76123;SDS011;65173;48.066;20.976;2023-04-06T13:28:44;24.00;;;14.10;;
76123;SDS011;65173;48.066;20.976;2023-04-06T13:31:47;25.70;;;13.30;;
76123;SDS011;65173;48.066;20.976;2023-04-06T13:34:50;27.95;;;15.05;;
76123;SDS011;65173;48.066;20.976;2023-04-06T13:37:56;26.45;;;14.30;;
76123;SDS011;65173;48.066;20.976;2023-04-06T13:41:00;21.02;;;13.10;;
76123;SDS011;65173;48.066;20.976;2023-04-06T13:44:02;28.38;;;13.85;;
76123;SDS011;65173;48.066;20.976;2023-04-06T13:47:05;23.10;;;13.15;;
76123;SDS011;65173;48.066;20.976;2023-04-06T13:50:08;20.70;;;10.97;;
76123;SDS011;65173;48.066;20.976;2023-04-06T13:53:12;29.63;;;14.25;;
76123;SDS011;65173;48.066;20.976;2023-04-06T13:56:14;21.08;;;11.35;;
76123;SDS011;65173;48.066;20.976;2023-04-06T13:59:17;21.37;;;11.27;;
76123;SDS011;65173;48.066;20.976;2023-04-06T14:02:20;23.48;;;11.68;;
76123;SDS011;65173;48.066;20.976;2023-04-06T14:05:33;21.88;;;10.15;;
76123;SDS011;65173;48.066;20.976;2023-04-06T14:08:35;18.40;;;10.40;;
76123;SDS011;65173;48.066;20.976;2023-04-06T14:11:39;16.25;;;11.10;;
76123;SDS011;65173;48.066;20.976;2023-04-06T14:14:41;16.05;;;9.52;;
76123;SDS011;65173;48.066;20.976;2023-04-06T14:17:44;17.38;;;11.30;;
76123;SDS011;65173;48.066;20.976;2023-04-06T14:20:55;20.87;;;10.73;;
76123;SDS011;65173;48.066;20.976;2023-04-06T14:23:57;19.48;;;10.95;;
76123;SDS011;65173;48.066;20.976;2023-04-06T14:27:01;11.95;;;6.60;;
76123;SDS011;65173;48.066;20.976;2023-04-06T14:30:05;18.23;;;11.03;;
76123;SDS011;65173;48.066;20.976;2023-04-06T14:33:11;16.30;;;10.00;;
76123;SDS011;65173;48.066;20.976;2023-04-06T14:36:14;21.38;;;10.95;;
76123;SDS011;65173;48.066;20.976;2023-04-06T14:39:17;20.02;;;11.35;;
76123;SDS011;65173;48.066;20.976;2023-04-06T14:42:20;18.83;;;11.05;;
76123;SDS011;65173;48.066;20.976;2023-04-06T14:45:23;22.20;;;12.02;;
76123;SDS011;65173;48.066;20.976;2023-04-06T14:48:26;18.58;;;11.10;;
76123;SDS011;65173;48.066;20.976;2023-04-06T14:51:28;18.40;;;9.20;;
76123;SDS011;65173;48.066;20.976;2023-04-06T14:54:32;15.50;;;9.00;;
76123;SDS011;65173;48.066;20.976;2023-04-06T14:57:34;21.52;;;11.30;;
76123;SDS011;65173;48.066;20.976;2023-04-06T15:00:38;17.70;;;10.47;;
76123;SDS011;65173;48.066;20.976;2023-04-06T15:03:41;20.55;;;11.68;;
76123;SDS011;65173;48.066;20.976;2023-04-06T15:06:44;16.13;;;10.30;;
76123;SDS011;65173;48.066;20.976;2023-04-06T15:09:47;16.33;;;10.40;;
76123;SDS011;65173;48.066;20.976;2023-04-06T15:12:50;20.77;;;10.88;;
76123;SDS011;65173;48.066;20.976;2023-04-06T15:15:53;22.58;;;12.23;;
76123;SDS011;65173;48.066;20.976;2023-04-06T15:18:56;22.30;;;11.93;;
76123;SDS011;65173;48.066;20.976;2023-04-06T15:21:58;23.80;;;12.47;;
76123;SDS011;65173;48.066;20.976;2023-04-06T15:25:02;22.90;;;12.77;;
76123;SDS011;65173;48.066;20.976;2023-04-06T15:28:05;20.40;;;11.70;;
76123;SDS011;65173;48.066;20.976;2023-04-06T15:31:15;20.77;;;12.97;;
76123;SDS011;65173;48.066;20.976;2023-04-06T15:34:34;21.40;;;11.70;;
76123;SDS011;65173;48.066;20.976;2023-04-06T15:37:38;23.90;;;13.43;;
76123;SDS011;65173;48.066;20.976;2023-04-06T15:40:44;24.65;;;13.02;;
76123;SDS011;65173;48.066;20.976;2023-04-06T15:43:48;24.40;;;13.23;;
76123;SDS011;65173;48.066;20.976;2023-04-06T15:46:54;25.95;;;13.98;;
76123;SDS011;65173;48.066;20.976;2023-04-06T15:49:56;16.90;;;9.68;;
76123;SDS011;65173;48.066;20.976;2023-04-06T15:52:59;12.60;;;7.90;;
76123;SDS011;65173;48.066;20.976;2023-04-06T15:56:03;12.50;;;7.65;;
76123;SDS011;65173;48.066;20.976;2023-04-06T15:59:07;13.05;;;6.50;;
76123;SDS011;65173;48.066;20.976;2023-04-06T16:02:10;16.07;;;8.80;;
76123;SDS011;65173;48.066;20.976;2023-04-06T16:05:13;15.13;;;8.57;;
76123;SDS011;65173;48.066;20.976;2023-04-06T16:08:15;14.73;;;8.05;;
76123;SDS011;65173;48.066;20.976;2023-04-06T16:11:20;11.85;;;7.13;;
76123;SDS011;65173;48.066;20.976;2023-04-06T16:14:23;16.70;;;9.43;;
76123;SDS011;65173;48.066;20.976;2023-04-06T16:17:25;19.38;;;11.73;;
76123;SDS011;65173;48.066;20.976;2023-04-06T16:20:29;26.90;;;16.35;;
76123;SDS011;65173;48.066;20.976;2023-04-06T16:23:33;24.63;;;14.47;;
76123;SDS011;65173;48.066;20.976;2023-04-06T16:26:37;52.25;;;23.55;;
76123;SDS011;65173;48.066;20.976;2023-04-06T16:29:39;88.68;;;37.30;;
76123;SDS011;65173;48.066;20.976;2023-04-06T16:32:42;83.53;;;39.80;;
76123;SDS011;65173;48.066;20.976;2023-04-06T16:35:47;82.20;;;38.22;;
76123;SDS011;65173;48.066;20.976;2023-04-06T16:38:50;80.40;;;35.20;;
76123;SDS011;65173;48.066;20.976;2023-04-06T16:41:53;94.68;;;39.17;;
76123;SDS011;65173;48.066;20.976;2023-04-06T16:44:57;68.03;;;33.55;;
76123;SDS011;65173;48.066;20.976;2023-04-06T16:47:59;25.40;;;14.77;;
76123;SDS011;65173;48.066;20.976;2023-04-06T16:51:06;20.70;;;11.88;;
76123;SDS011;65173;48.066;20.976;2023-04-06T16:54:09;25.53;;;11.90;;
76123;SDS011;65173;48.066;20.976;2023-04-06T16:57:12;23.45;;;14.23;;
76123;SDS011;65173;48.066;20.976;2023-04-06T17:00:17;27.05;;;14.18;;
76123;SDS011;65173;48.066;20.976;2023-04-06T17:03:20;31.03;;;17.33;;
76123;SDS011;65173;48.066;20.976;2023-04-06T17:06:23;39.42;;;20.30;;
76123;SDS011;65173;48.066;20.976;2023-04-06T17:09:28;43.22;;;23.48;;
76123;SDS011;65173;48.066;20.976;2023-04-06T17:12:35;47.75;;;24.38;;
76123;SDS011;65173;48.066;20.976;2023-04-06T17:15:38;37.40;;;17.83;;
76123;SDS011;65173;48.066;20.976;2023-04-06T17:18:40;37.63;;;20.33;;
76123;SDS011;65173;48.066;20.976;2023-04-06T17:21:43;46.03;;;22.63;;
76123;SDS011;65173;48.066;20.976;2023-04-06T17:24:47;70.80;;;33.67;;
76123;SDS011;65173;48.066;20.976;2023-04-06T17:27:50;62.50;;;27.77;;
76123;SDS011;65173;48.066;20.976;2023-04-06T17:30:53;46.80;;;24.10;;
76123;SDS011;65173;48.066;20.976;2023-04-06T17:33:56;45.40;;;25.03;;
76123;SDS011;65173;48.066;20.976;2023-04-06T17:36:59;51.67;;;29.48;;
76123;SDS011;65173;48.066;20.976;2023-04-06T17:40:02;64.32;;;35.60;;
76123;SDS011;65173;48.066;20.976;2023-04-06T17:43:07;125.57;;;58.28;;
76123;SDS011;65173;48.066;20.976;2023-04-06T17:46:10;108.10;;;47.83;;
76123;SDS011;65173;48.066;20.976;2023-04-06T17:49:13;74.85;;;35.47;;
76123;SDS011;65173;48.066;20.976;2023-04-06T17:52:16;121.45;;;55.55;;
76123;SDS011;65173;48.066;20.976;2023-04-06T17:55:19;99.20;;;48.93;;
76123;SDS011;65173;48.066;20.976;2023-04-06T17:58:24;64.60;;;33.88;;